Time;durP1;ratioP1;P1;durP2;ratioP2;P2;SDS_P1;SDS_P2;PMS_P1;PMS_P2;Temp;Humidity;BMP_temperature;BMP_pressure;BME280_temperature;BME280_humidity;BME280_pressure;Samples;Min_cycle;Max_cycle;Signal;HPM_P1;HPM_P2
2023/12/09 00:01:40;;;;;;;16.38;8.55;;;2.60;99.90;;;;;;5077572;28;20036;-76
2023/12/09 00:04:05;;;;;;;16.25;8.90;;;2.60;99.90;;;;;;5059020;28;20028;-77
2023/12/09 00:06:31;;;;;;;13.15;8.10;;;2.50;99.90;;;;;;5074362;28;20082;-77
2023/12/09 00:08:57;;;;;;;18.17;9.30;;;2.50;99.90;;;;;;5057865;28;20103;-77
2023/12/09 00:11:22;;;;;;;18.63;9.93;;;2.50;99.90;;;;;;5078210;28;20048;-77
2023/12/09 00:13:48;;;;;;;21.48;9.65;;;2.50;99.90;;;;;;5074428;28;20495;-77
2023/12/09 00:16:14;;;;;;;15.73;8.77;;;2.50;99.90;;;;;;5072976;28;20223;-77
2023/12/09 00:18:39;;;;;;;14.48;8.38;;;2.50;99.90;;;;;;5076043;28;20024;-76
2023/12/09 00:21:05;;;;;;;15.48;9.18;;;2.60;99.90;;;;;;5078271;28;20036;-77
2023/12/09 00:23:31;;;;;;;20.73;9.10;;;2.60;99.90;;;;;;5076694;28;20025;-78
2023/12/09 00:25:56;;;;;;;18.27;9.65;;;2.60;99.90;;;;;;5059156;28;20123;-77
2023/12/09 00:28:22;;;;;;;14.57;8.13;;;2.60;99.90;;;;;;5077257;28;20102;-77
2023/12/09 00:30:48;;;;;;;17.50;9.32;;;2.60;99.90;;;;;;5076919;28;20107;-77
2023/12/09 00:33:15;;;;;;;15.55;9.13;;;2.60;99.90;;;;;;5057827;28;20150;-77
2023/12/09 00:35:40;;;;;;;20.48;8.70;;;2.50;99.90;;;;;;5073402;28;20008;-77
2023/12/09 00:38:06;;;;;;;14.40;8.38;;;2.60;99.90;;;;;;5059661;28;20136;-77
2023/12/09 00:40:32;;;;;;;25.23;14.45;;;2.60;99.90;;;;;;5070969;28;20049;-77
2023/12/09 00:42:57;;;;;;;30.70;18.58;;;2.50;99.90;;;;;;5068878;28;20024;-76
2023/12/09 00:45:25;;;;;;;18.13;10.50;;;2.50;99.90;;;;;;5070265;28;20048;-76
2023/12/09 00:47:51;;;;;;;18.65;10.45;;;2.60;99.90;;;;;;5067434;28;20032;-77
2023/12/09 00:50:18;;;;;;;19.95;9.48;;;2.60;99.90;;;;;;5054312;28;20036;-76
2023/12/09 00:53:02;;;;;;;18.60;10.02;;;2.60;99.90;;;;;;5057558;28;20048;-76
2023/12/09 00:55:27;;;;;;;17.33;8.68;;;2.60;99.90;;;;;;5077494;28;20370;-77
2023/12/09 00:57:53;;;;;;;16.70;8.82;;;2.60;99.90;;;;;;5071814;28;20046;-76
2023/12/09 01:00:18;;;;;;;16.20;8.50;;;2.60;99.90;;;;;;5068145;28;20029;-77
2023/12/09 01:02:44;;;;;;;16.80;8.63;;;2.50;99.90;;;;;;5070708;28;20032;-76
2023/12/09 01:05:11;;;;;;;17.45;9.00;;;2.60;99.90;;;;;;5069621;28;20021;-76
2023/12/09 01:07:36;;;;;;;17.55;9.15;;;2.60;99.90;;;;;;5073202;28;20019;-76
2023/12/09 01:10:03;;;;;;;16.13;8.90;;;2.60;99.90;;;;;;5072994;28;20036;-77
2023/12/09 01:12:30;;;;;;;14.35;8.38;;;2.60;99.90;;;;;;5071504;28;20500;-76
2023/12/09 01:14:56;;;;;;;15.13;8.57;;;2.60;99.90;;;;;;5069334;28;20021;-77
2023/12/09 01:17:21;;;;;;;15.40;8.50;;;2.60;99.90;;;;;;5054167;28;20016;-78
2023/12/09 01:19:47;;;;;;;15.32;8.70;;;2.60;99.90;;;;;;5054629;28;20021;-77
2023/12/09 01:22:13;;;;;;;15.52;7.95;;;2.60;99.90;;;;;;5053191;28;20021;-77
2023/12/09 01:24:39;;;;;;;20.17;8.70;;;2.50;99.90;;;;;;5070394;28;20484;-77
2023/12/09 01:27:05;;;;;;;19.75;8.82;;;2.50;99.90;;;;;;5068388;28;20056;-77
2023/12/09 01:29:31;;;;;;;18.10;8.63;;;2.50;99.90;;;;;;5070963;28;20036;-77
2023/12/09 01:31:56;;;;;;;17.30;9.07;;;2.60;99.90;;;;;;5073477;28;20029;-77
2023/12/09 01:34:22;;;;;;;19.75;8.43;;;2.60;99.90;;;;;;5070502;28;20028;-77
2023/12/09 01:36:48;;;;;;;15.00;8.18;;;2.60;99.90;;;;;;5054306;28;20426;-77
2023/12/09 01:39:14;;;;;;;16.13;8.05;;;2.60;99.90;;;;;;5071826;28;20020;-75
2023/12/09 01:41:40;;;;;;;15.63;8.40;;;2.60;99.90;;;;;;5054729;28;20112;-75
2023/12/09 01:44:05;;;;;;;14.27;9.13;;;2.60;99.90;;;;;;5074171;28;20423;-75
2023/12/09 01:46:33;;;;;;;16.52;9.13;;;2.60;99.90;;;;;;5056598;28;20024;-75
2023/12/09 01:48:58;;;;;;;18.48;9.38;;;2.60;99.90;;;;;;5053264;28;20494;-76
2023/12/09 01:51:26;;;;;;;14.60;8.05;;;2.60;99.90;;;;;;5071560;28;20111;-76
2023/12/09 01:53:53;;;;;;;14.73;9.33;;;2.60;99.90;;;;;;5071307;28;20025;-76
2023/12/09 01:56:21;;;;;;;24.38;9.35;;;2.60;99.90;;;;;;5073117;28;20066;-76
2023/12/09 01:58:47;;;;;;;17.75;8.55;;;2.60;99.90;;;;;;5070058;28;20166;-75
2023/12/09 02:01:13;;;;;;;14.63;8.93;;;2.60;99.90;;;;;;5072006;28;20040;-75
2023/12/09 02:03:39;;;;;;;17.33;9.38;;;2.60;99.90;;;;;;5071282;28;20020;-75
2023/12/09 02:06:05;;;;;;;14.27;7.75;;;2.60;99.90;;;;;;5068476;28;20036;-76
2023/12/09 02:08:32;;;;;;;12.57;7.22;;;2.60;99.90;;;;;;5054757;28;20029;-75
2023/12/09 02:11:26;;;;;;;19.00;7.22;;;2.60;99.90;;;;;;5057719;28;20033;-77
2023/12/09 02:17:22;;;;;;;13.00;8.77;;;2.60;99.90;;;;;;5072657;28;20032;-77
2023/12/09 02:19:48;;;;;;;15.55;8.15;;;2.60;99.90;;;;;;5072270;28;20054;-76
2023/12/09 02:22:14;;;;;;;9.25;5.82;;;2.60;99.90;;;;;;5073405;28;20511;-77
2023/12/09 02:24:39;;;;;;;15.20;7.65;;;2.60;99.90;;;;;;5072202;28;20111;-76
2023/12/09 02:27:08;;;;;;;15.82;8.13;;;2.60;99.90;;;;;;5074807;28;20045;-77
2023/12/09 02:29:59;;;;;;;14.18;8.00;;;2.60;99.90;;;;;;5071080;28;20040;-76
2023/12/09 02:32:28;;;;;;;14.10;7.93;;;2.50;99.90;;;;;;5071567;28;20032;-77
2023/12/09 02:34:54;;;;;;;13.20;6.85;;;2.50;99.90;;;;;;5071895;28;20024;-78
2023/12/09 02:37:21;;;;;;;13.32;6.55;;;2.40;99.90;;;;;;5074884;28;20023;-77
2023/12/09 02:39:47;;;;;;;18.70;7.72;;;2.40;99.90;;;;;;5073814;28;20021;-77
2023/12/09 02:42:14;;;;;;;14.20;7.93;;;2.40;99.90;;;;;;5077068;28;20016;-77
2023/12/09 02:44:42;;;;;;;11.55;6.63;;;2.50;99.90;;;;;;5054437;28;20029;-77
2023/12/09 02:47:14;;;;;;;14.52;7.80;;;2.50;99.90;;;;;;5059113;28;20056;-77
2023/12/09 02:49:40;;;;;;;12.60;7.65;;;2.50;99.90;;;;;;5075412;28;20759;-77
2023/12/09 02:52:06;;;;;;;13.13;7.78;;;2.40;99.90;;;;;;5071979;28;20086;-77
2023/12/09 02:54:31;;;;;;;16.17;8.00;;;2.40;99.90;;;;;;5059763;28;20025;-76
2023/12/09 02:56:57;;;;;;;12.60;6.93;;;2.40;99.90;;;;;;5076051;28;20008;-77
2023/12/09 02:59:22;;;;;;;11.40;6.78;;;2.50;99.90;;;;;;5059899;28;20084;-77
2023/12/09 03:01:48;;;;;;;14.52;7.72;;;2.50;99.90;;;;;;5057363;28;20036;-77
2023/12/09 03:04:14;;;;;;;13.55;7.72;;;2.50;99.90;;;;;;5074345;28;20063;-77
2023/12/09 03:06:40;;;;;;;14.02;7.57;;;2.50;99.90;;;;;;5075695;28;20119;-77
2023/12/09 03:09:06;;;;;;;12.02;6.90;;;2.50;99.90;;;;;;5071827;28;20048;-77
2023/12/09 03:11:32;;;;;;;13.07;8.32;;;2.60;99.90;;;;;;5058217;28;20024;-76
2023/12/09 03:13:57;;;;;;;16.63;7.10;;;2.50;99.90;;;;;;5072925;28;20028;-77
2023/12/09 03:16:23;;;;;;;12.60;7.05;;;2.60;99.90;;;;;;5071974;28;20016;-77
2023/12/09 03:18:48;;;;;;;12.57;6.47;;;2.60;99.90;;;;;;5074688;28;20065;-77
2023/12/09 03:21:15;;;;;;;12.30;7.63;;;2.60;99.90;;;;;;5060118;28;20021;-77
2023/12/09 03:23:44;;;;;;;10.27;6.60;;;2.60;99.90;;;;;;5076696;28;20401;-77
2023/12/09 03:26:15;;;;;;;;;;;2.50;99.90;;;;;;5073009;28;20032;-77
2023/12/09 03:28:42;;;;;;;12.48;7.45;;;2.50;99.90;;;;;;5073992;28;19969;-76
2023/12/09 03:31:09;;;;;;;14.93;7.00;;;2.50;99.90;;;;;;5056687;28;20033;-77
2023/12/09 03:33:35;;;;;;;12.57;7.25;;;2.50;99.90;;;;;;5054308;28;20024;-77
2023/12/09 03:36:00;;;;;;;17.30;9.35;;;2.50;99.90;;;;;;5073137;28;20035;-77
2023/12/09 03:38:26;;;;;;;88.07;37.70;;;2.60;99.90;;;;;;5058258;28;20077;-77
2023/12/09 03:40:51;;;;;;;25.73;13.23;;;2.60;99.90;;;;;;5059193;28;20091;-77
2023/12/09 03:43:17;;;;;;;34.33;16.35;;;2.60;99.90;;;;;;5074502;28;20037;-77
2023/12/09 03:45:42;;;;;;;23.73;11.57;;;2.60;99.90;;;;;;5057290;28;20029;-76
2023/12/09 03:48:08;;;;;;;23.85;10.98;;;2.60;99.90;;;;;;5073485;28;20512;-77
2023/12/09 03:50:34;;;;;;;16.20;9.52;;;2.50;99.90;;;;;;5071903;28;20100;-77
2023/12/09 03:52:59;;;;;;;19.60;10.23;;;2.50;99.90;;;;;;5057674;28;20564;-77
2023/12/09 03:55:25;;;;;;;18.20;8.60;;;2.50;99.90;;;;;;5073726;28;20049;-77
2023/12/09 03:57:51;;;;;;;14.52;7.32;;;2.50;99.90;;;;;;5069706;28;20033;-77
2023/12/09 04:00:16;;;;;;;13.13;7.85;;;2.50;99.90;;;;;;5075478;28;20533;-77
2023/12/09 04:02:42;;;;;;;8.38;6.20;;;2.50;99.90;;;;;;5053623;28;20099;-78
2023/12/09 04:05:09;;;;;;;14.27;8.15;;;2.60;99.90;;;;;;5059568;28;20031;-77
2023/12/09 04:07:36;;;;;;;14.27;6.50;;;2.60;99.90;;;;;;5057383;28;20052;-77
2023/12/09 04:10:03;;;;;;;9.60;5.65;;;2.50;99.90;;;;;;5057056;28;20469;-77
2023/12/09 04:12:29;;;;;;;9.23;6.03;;;2.50;99.90;;;;;;5053406;28;20032;-77
2023/12/09 04:14:54;;;;;;;15.30;7.18;;;2.50;99.90;;;;;;5072466;28;20024;-77
2023/12/09 04:17:21;;;;;;;11.90;7.18;;;2.50;99.90;;;;;;5060242;28;20024;-77
2023/12/09 04:19:47;;;;;;;12.30;6.22;;;2.40;99.90;;;;;;5056495;28;20024;-77
2023/12/09 04:22:13;;;;;;;12.52;6.78;;;2.40;99.90;;;;;;5072889;28;20032;-77
2023/12/09 04:24:40;;;;;;;10.98;6.95;;;2.40;99.90;;;;;;5074785;28;20393;-77
2023/12/09 04:27:06;;;;;;;12.07;6.97;;;2.40;99.90;;;;;;5049708;28;20124;-77
2023/12/09 04:29:31;;;;;;;11.40;6.57;;;2.50;99.90;;;;;;5071877;28;20056;-77
2023/12/09 04:31:57;;;;;;;9.93;6.25;;;2.40;99.90;;;;;;5055762;28;20040;-77
2023/12/09 04:34:22;;;;;;;10.48;6.18;;;2.50;99.90;;;;;;5058108;28;20020;-77
2023/12/09 04:36:48;;;;;;;10.80;6.43;;;2.50;99.90;;;;;;5075297;28;20020;-77
2023/12/09 04:39:14;;;;;;;12.25;6.47;;;2.50;99.90;;;;;;5070950;28;20020;-77
2023/12/09 04:41:40;;;;;;;8.07;5.63;;;2.50;99.90;;;;;;5071176;28;20032;-77
2023/12/09 04:44:06;;;;;;;8.45;6.10;;;2.50;99.90;;;;;;5057254;28;20025;-77
2023/12/09 04:46:32;;;;;;;12.18;6.45;;;2.50;99.90;;;;;;5073226;28;20133;-76
2023/12/09 04:48:57;;;;;;;10.68;5.68;;;2.50;99.90;;;;;;5075250;28;20063;-77
2023/12/09 04:51:23;;;;;;;11.40;6.35;;;2.50;99.90;;;;;;5067737;28;20097;-77
2023/12/09 04:53:50;;;;;;;11.90;6.50;;;2.40;99.90;;;;;;5055552;28;20021;-78
2023/12/09 04:56:16;;;;;;;10.85;5.82;;;2.50;99.90;;;;;;5052102;28;20027;-77
2023/12/09 04:58:42;;;;;;;9.75;5.75;;;2.50;99.90;;;;;;5067255;28;20032;-77
2023/12/09 05:01:08;;;;;;;10.57;6.30;;;2.50;99.90;;;;;;5072435;28;20032;-77
2023/12/09 05:03:34;;;;;;;9.02;6.18;;;2.50;99.90;;;;;;5073272;28;20023;-78
2023/12/09 05:06:00;;;;;;;12.85;6.75;;;2.50;99.90;;;;;;5062773;28;20029;-77
2023/12/09 05:08:26;;;;;;;9.65;5.97;;;2.60;99.90;;;;;;5057053;28;20036;-77
2023/12/09 05:10:52;;;;;;;20.75;6.13;;;2.60;99.90;;;;;;5053898;28;20059;-77
2023/12/09 05:13:18;;;;;;;11.10;6.55;;;2.60;99.90;;;;;;5056930;28;20024;-77
2023/12/09 05:15:44;;;;;;;12.18;6.82;;;2.50;99.90;;;;;;5071374;28;20025;-77
2023/12/09 05:18:10;;;;;;;9.05;5.55;;;2.50;99.90;;;;;;5072547;28;20087;-77
2023/12/09 05:20:35;;;;;;;11.75;6.40;;;2.50;99.90;;;;;;5054405;28;20031;-77
2023/12/09 05:23:01;;;;;;;10.63;6.07;;;2.50;99.90;;;;;;5055101;28;20020;-77
2023/12/09 05:25:27;;;;;;;10.40;6.47;;;2.50;99.90;;;;;;5056195;28;20023;-78
2023/12/09 05:27:53;;;;;;;10.23;6.35;;;2.40;99.90;;;;;;5069543;28;20056;-77
2023/12/09 05:30:19;;;;;;;10.32;6.05;;;2.40;99.90;;;;;;5071914;28;20088;-77
2023/12/09 05:32:45;;;;;;;12.88;6.10;;;2.40;99.90;;;;;;5071376;28;20108;-77
2023/12/09 05:35:10;;;;;;;12.73;7.57;;;2.40;99.90;;;;;;5054001;28;20493;-77
2023/12/09 05:37:36;;;;;;;20.83;14.52;;;2.40;99.90;;;;;;5054061;28;20136;-78
2023/12/09 05:40:03;;;;;;;48.45;30.40;;;2.40;99.90;;;;;;5069705;28;20021;-78
2023/12/09 05:42:29;;;;;;;43.70;28.20;;;2.40;99.90;;;;;;5074125;28;20024;-78
2023/12/09 05:44:54;;;;;;;19.20;13.73;;;2.40;99.90;;;;;;5062152;28;21671;-77
2023/12/09 05:47:20;;;;;;;21.95;13.68;;;2.50;99.90;;;;;;5061622;28;20039;-77
2023/12/09 05:49:45;;;;;;;28.45;14.63;;;2.50;99.90;;;;;;5061740;28;20025;-77
2023/12/09 05:52:11;;;;;;;20.08;12.32;;;2.60;99.90;;;;;;5061861;28;20020;-77
2023/12/09 05:54:37;;;;;;;16.20;7.60;;;2.50;99.90;;;;;;5077403;28;20024;-77
2023/12/09 05:57:03;;;;;;;17.80;8.88;;;2.50;99.90;;;;;;5078037;28;20528;-78
2023/12/09 05:59:28;;;;;;;18.52;9.23;;;2.50;99.90;;;;;;5061475;28;20055;-76
2023/12/09 06:01:55;;;;;;;17.95;8.68;;;2.60;99.90;;;;;;5077170;28;20404;-77
2023/12/09 06:04:20;;;;;;;16.30;7.93;;;2.60;99.90;;;;;;5077839;28;20039;-77
2023/12/09 06:06:46;;;;;;;19.58;9.43;;;2.60;99.90;;;;;;5075117;28;20032;-76
2023/12/09 06:09:11;;;;;;;13.93;7.38;;;2.60;99.90;;;;;;5077822;28;20036;-76
2023/12/09 06:11:37;;;;;;;15.75;8.30;;;2.60;99.90;;;;;;5063812;28;20238;-77
2023/12/09 06:14:03;;;;;;;18.98;9.48;;;2.60;99.90;;;;;;5073683;28;20031;-77
2023/12/09 06:16:28;;;;;;;19.92;9.25;;;2.60;99.90;;;;;;5077034;28;20029;-77
2023/12/09 06:18:54;;;;;;;16.52;7.30;;;2.60;99.90;;;;;;5072568;28;20020;-77
2023/12/09 06:21:23;;;;;;;14.77;7.75;;;2.60;99.90;;;;;;5077174;28;20485;-77
2023/12/09 06:23:49;;;;;;;18.48;7.85;;;2.70;99.90;;;;;;5058723;28;20101;-77
2023/12/09 06:26:15;;;;;;;15.32;6.85;;;2.60;99.90;;;;;;5075332;28;20028;-77
2023/12/09 06:28:41;;;;;;;20.75;7.82;;;2.60;99.90;;;;;;5074358;28;20584;-77
2023/12/09 06:31:06;;;;;;;11.70;6.10;;;2.60;99.90;;;;;;5071580;28;20092;-77
2023/12/09 06:33:33;;;;;;;16.77;7.78;;;2.60;99.90;;;;;;5071710;28;20218;-77
2023/12/09 06:35:59;;;;;;;14.07;6.47;;;2.60;99.90;;;;;;5074090;28;20100;-77
2023/12/09 06:38:25;;;;;;;13.85;5.85;;;2.60;99.90;;;;;;5074054;28;20067;-77
2023/12/09 06:40:51;;;;;;;14.15;6.93;;;2.60;99.90;;;;;;5056853;28;22102;-77
2023/12/09 06:43:17;;;;;;;12.85;5.93;;;2.60;99.90;;;;;;5059172;28;20082;-77
2023/12/09 06:45:42;;;;;;;12.80;5.95;;;2.60;99.90;;;;;;5070145;28;20087;-77
2023/12/09 06:48:08;;;;;;;16.63;6.78;;;2.60;99.90;;;;;;5057271;28;20363;-77
2023/12/09 06:50:33;;;;;;;23.83;6.85;;;2.60;99.90;;;;;;5059014;28;20029;-77
2023/12/09 06:53:00;;;;;;;11.25;6.68;;;2.50;99.90;;;;;;5055590;28;20325;-77
2023/12/09 06:55:26;;;;;;;11.00;5.95;;;2.50;99.90;;;;;;5072509;28;20038;-77
2023/12/09 06:57:51;;;;;;;10.80;5.72;;;2.50;99.90;;;;;;5071910;28;20465;-77
2023/12/09 07:00:17;;;;;;;8.82;5.05;;;2.60;99.90;;;;;;5056709;28;20029;-77
2023/12/09 07:02:43;;;;;;;13.77;7.10;;;2.50;99.90;;;;;;5074288;28;20061;-76
2023/12/09 07:05:14;;;;;;;13.73;7.20;;;2.60;99.90;;;;;;5068280;28;20039;-77
2023/12/09 07:07:40;;;;;;;13.00;6.57;;;2.70;99.90;;;;;;5066568;28;20025;-77
2023/12/09 07:10:07;;;;;;;9.60;5.65;;;2.80;99.90;;;;;;5058225;28;20506;-77
2023/12/09 07:12:32;;;;;;;15.27;7.25;;;2.90;99.90;;;;;;5058275;28;20108;-77
2023/12/09 07:15:00;;;;;;;9.35;5.80;;;2.90;99.90;;;;;;5047113;28;20021;-77
2023/12/09 07:17:26;;;;;;;12.05;6.38;;;3.00;99.90;;;;;;5064101;28;20027;-77
2023/12/09 07:19:52;;;;;;;13.05;5.75;;;2.90;99.90;;;;;;5074923;28;20029;-77
2023/12/09 07:22:19;;;;;;;14.82;5.88;;;2.80;99.90;;;;;;5063473;28;20029;-78
2023/12/09 07:24:46;;;;;;;11.90;6.47;;;2.80;99.90;;;;;;5071486;28;20112;-77
2023/12/09 07:27:13;;;;;;;13.90;5.35;;;2.80;99.90;;;;;;5070971;28;20044;-77
2023/12/09 07:29:38;;;;;;;13.63;6.25;;;2.70;99.90;;;;;;5075735;28;20108;-75
2023/12/09 07:32:04;;;;;;;9.23;5.32;;;2.70;99.90;;;;;;5073335;28;20083;-78
2023/12/09 07:34:30;;;;;;;12.45;6.10;;;2.60;99.90;;;;;;5057237;28;20096;-76
2023/12/09 07:36:56;;;;;;;13.05;6.15;;;2.60;99.90;;;;;;5070848;28;20385;-76
2023/12/09 07:39:23;;;;;;;15.13;6.03;;;2.70;99.90;;;;;;5062512;28;20039;-77
2023/12/09 07:41:50;;;;;;;15.43;6.05;;;2.70;99.90;;;;;;5070791;28;20021;-78
2023/12/09 07:44:20;;;;;;;18.30;7.47;;;2.70;99.90;;;;;;5049667;28;20021;-77
2023/12/09 07:46:46;;;;;;;13.57;5.75;;;2.70;99.90;;;;;;5049102;28;20102;-77
2023/12/09 07:49:12;;;;;;;15.30;6.88;;;2.80;99.90;;;;;;5049886;28;20021;-77
2023/12/09 07:51:38;;;;;;;12.57;7.60;;;2.80;99.90;;;;;;5060049;28;20037;-78
2023/12/09 07:54:04;;;;;;;14.80;7.15;;;2.80;99.90;;;;;;5073883;28;20473;-78
2023/12/09 07:56:30;;;;;;;11.80;6.72;;;2.80;99.90;;;;;;5072907;28;20039;-78
2023/12/09 07:58:56;;;;;;;9.57;5.68;;;2.80;99.90;;;;;;5073321;28;20013;-77
2023/12/09 08:01:22;;;;;;;12.45;5.82;;;3.00;99.90;;;;;;5050347;28;20128;-77
2023/12/09 08:03:48;;;;;;;11.90;5.63;;;3.00;99.90;;;;;;5056211;28;20031;-78
2023/12/09 08:06:14;;;;;;;9.45;5.30;;;3.00;99.90;;;;;;5054998;28;20032;-77
2023/12/09 08:08:39;;;;;;;14.80;4.78;;;2.90;99.90;;;;;;5074107;28;20033;-77
2023/12/09 08:11:05;;;;;;;7.97;4.70;;;2.90;99.90;;;;;;5053650;28;20033;-78
2023/12/09 08:13:31;;;;;;;9.38;5.30;;;2.90;99.90;;;;;;5055889;28;20748;-77
2023/12/09 08:15:57;;;;;;;13.27;4.88;;;3.00;99.90;;;;;;5056104;28;20036;-78
2023/12/09 08:18:23;;;;;;;11.40;5.18;;;3.00;99.90;;;;;;5055917;28;20087;-78
2023/12/09 08:20:48;;;;;;;16.42;6.03;;;3.00;99.90;;;;;;5074584;28;20025;-78
2023/12/09 08:23:14;;;;;;;11.20;5.18;;;3.00;99.90;;;;;;5072291;28;20518;-77
2023/12/09 08:25:43;;;;;;;9.57;5.43;;;3.00;99.90;;;;;;5073406;28;20485;-78
2023/12/09 08:28:10;;;;;;;10.55;5.72;;;3.10;99.90;;;;;;5072874;28;20054;-77
2023/12/09 08:30:36;;;;;;;14.95;5.68;;;3.10;99.90;;;;;;5058563;28;20730;-77
2023/12/09 08:33:02;;;;;;;25.15;5.93;;;3.10;99.90;;;;;;5072094;28;20080;-77
2023/12/09 08:35:28;;;;;;;12.52;5.75;;;3.10;99.90;;;;;;5071945;28;20024;-77
2023/12/09 08:37:54;;;;;;;16.10;5.75;;;3.10;99.90;;;;;;5076011;28;20028;-78
2023/12/09 08:40:19;;;;;;;9.27;5.38;;;3.10;99.90;;;;;;5051662;28;20017;-78
2023/12/09 08:42:46;;;;;;;13.75;6.18;;;3.10;99.90;;;;;;5070587;28;20036;-78
2023/12/09 08:45:13;;;;;;;13.38;6.43;;;3.20;99.90;;;;;;5071010;28;20035;-77
2023/12/09 08:47:39;;;;;;;17.90;6.57;;;3.10;99.90;;;;;;5073506;28;20024;-78
2023/12/09 08:50:06;;;;;;;11.68;5.32;;;3.10;99.90;;;;;;5075509;28;20028;-77
2023/12/09 08:52:32;;;;;;;15.45;6.68;;;3.10;99.90;;;;;;5074376;28;20566;-78
2023/12/09 08:54:58;;;;;;;22.45;6.15;;;3.00;99.90;;;;;;5072191;28;20044;-78
2023/12/09 08:57:25;;;;;;;13.25;6.55;;;3.10;99.90;;;;;;5067266;28;20016;-78
2023/12/09 08:59:51;;;;;;;11.13;5.43;;;3.10;99.90;;;;;;5058107;28;20029;-78
2023/12/09 09:02:17;;;;;;;18.70;8.10;;;3.20;99.90;;;;;;5057834;28;20493;-78
2023/12/09 09:04:42;;;;;;;15.15;5.97;;;3.20;99.90;;;;;;5057958;28;20081;-79
2023/12/09 09:07:09;;;;;;;12.55;5.82;;;3.20;99.90;;;;;;5077493;28;20101;-79
2023/12/09 09:09:37;;;;;;;10.20;6.13;;;3.30;99.90;;;;;;5067810;28;20040;-78
2023/12/09 09:12:03;;;;;;;14.30;7.32;;;3.30;99.90;;;;;;5056260;28;20064;-79
2023/12/09 09:14:28;;;;;;;11.77;6.38;;;3.30;99.90;;;;;;5072548;28;20555;-78
2023/12/09 09:16:54;;;;;;;16.30;8.15;;;3.40;99.90;;;;;;5077937;28;20039;-77
2023/12/09 09:19:20;;;;;;;13.77;6.90;;;3.40;99.90;;;;;;5075315;28;20520;-78
2023/12/09 09:21:46;;;;;;;13.02;6.75;;;3.30;99.90;;;;;;5062093;28;20028;-77
2023/12/09 09:24:12;;;;;;;14.43;6.57;;;3.40;99.90;;;;;;5062570;28;20128;-77
2023/12/09 09:26:40;;;;;;;17.63;8.20;;;3.40;99.90;;;;;;5072912;28;20049;-76
2023/12/09 09:29:06;;;;;;;14.18;6.53;;;3.40;99.90;;;;;;5072556;28;20032;-77
2023/12/09 09:31:32;;;;;;;15.23;7.28;;;3.40;99.90;;;;;;5076270;28;20047;-77
2023/12/09 09:33:57;;;;;;;13.73;6.63;;;3.50;99.90;;;;;;5078413;28;20027;-78
2023/12/09 09:36:23;;;;;;;14.55;7.47;;;3.40;99.90;;;;;;5076764;28;20028;-77
2023/12/09 09:38:49;;;;;;;15.18;7.63;;;3.50;99.90;;;;;;5077111;28;20028;-77
2023/12/09 09:41:31;;;;;;;13.45;6.95;;;3.50;99.90;;;;;;5079823;28;20031;-77
2023/12/09 09:44:01;;;;;;;13.23;6.22;;;3.50;99.90;;;;;;5061523;28;20024;-80
2023/12/09 09:46:28;;;;;;;11.80;7.07;;;3.50;99.90;;;;;;5066385;28;20020;-76
2023/12/09 09:48:55;;;;;;;15.07;7.10;;;3.50;99.90;;;;;;5060496;28;20113;-77
2023/12/09 09:51:28;;;;;;;12.20;6.23;;;3.50;99.90;;;;;;5075353;28;20470;-77
2023/12/09 09:54:22;;;;;;;14.32;6.60;;;3.50;99.90;;;;;;5074374;28;20115;-78
2023/12/09 09:56:49;;;;;;;13.63;6.47;;;3.50;99.90;;;;;;5072528;28;20036;-77
2023/12/09 09:59:17;;;;;;;15.98;6.97;;;3.50;99.90;;;;;;5084024;28;20032;-79
2023/12/09 10:01:44;;;;;;;16.35;6.28;;;3.60;99.90;;;;;;5072426;28;20040;-81
2023/12/09 10:04:11;;;;;;;13.93;6.72;;;3.60;99.90;;;;;;5089045;28;20044;-79
2023/12/09 10:06:38;;;;;;;14.75;7.30;;;3.70;99.90;;;;;;5073674;28;20033;-79
2023/12/09 10:09:15;;;;;;;15.43;6.88;;;3.70;99.90;;;;;;5066148;28;20037;-77
2023/12/09 10:11:40;;;;;;;17.42;8.30;;;3.70;99.90;;;;;;5055858;28;20023;-77
2023/12/09 10:14:09;;;;;;;16.30;7.07;;;3.70;99.90;;;;;;5068366;28;20072;-77
2023/12/09 10:16:35;;;;;;;;;;;3.80;99.90;;;;;;5054952;28;20035;-76
2023/12/09 10:19:02;;;;;;;11.07;5.15;;;3.90;99.90;;;;;;5054695;28;19908;-76
2023/12/09 10:21:28;;;;;;;14.27;5.82;;;3.90;99.90;;;;;;5055989;28;20025;-77
2023/12/09 10:23:54;;;;;;;17.25;7.00;;;4.00;99.90;;;;;;5055470;28;20039;-76
2023/12/09 10:26:20;;;;;;;11.10;6.00;;;4.00;99.90;;;;;;5070499;28;20036;-77
2023/12/09 10:28:46;;;;;;;39.45;7.60;;;4.00;99.90;;;;;;5078322;28;20452;-77
2023/12/09 10:31:12;;;;;;;17.23;7.60;;;4.00;99.90;;;;;;5075208;28;20085;-77
2023/12/09 10:33:39;;;;;;;14.13;6.93;;;4.00;99.90;;;;;;5059949;28;20107;-77
2023/12/09 10:36:08;;;;;;;12.85;6.82;;;4.00;99.90;;;;;;5075319;28;20028;-77
2023/12/09 10:38:42;;;;;;;12.95;5.80;;;3.90;99.90;;;;;;5054534;28;20020;-77
2023/12/09 10:41:16;;;;;;;12.75;7.07;;;3.90;99.90;;;;;;5065640;28;20020;-76
2023/12/09 10:43:41;;;;;;;14.40;6.75;;;3.90;99.90;;;;;;5071873;28;20036;-78
2023/12/09 10:46:09;;;;;;;13.98;6.72;;;4.00;99.90;;;;;;5073525;28;20017;-77
2023/12/09 10:48:36;;;;;;;13.85;6.22;;;4.00;99.90;;;;;;5056869;28;20029;-77
2023/12/09 10:51:03;;;;;;;15.40;6.65;;;4.10;99.90;;;;;;5074634;28;20025;-78
2023/12/09 10:53:29;;;;;;;11.23;5.53;;;4.00;99.90;;;;;;5056666;28;20024;-77
2023/12/09 10:56:00;;;;;;;12.40;5.40;;;3.90;99.90;;;;;;5055404;28;20053;-77
2023/12/09 10:58:27;;;;;;;11.60;5.10;;;3.90;99.90;;;;;;5057681;28;20153;-77
2023/12/09 11:00:56;;;;;;;11.50;5.90;;;3.90;99.90;;;;;;5072233;28;20027;-77
2023/12/09 11:03:23;;;;;;;13.02;6.43;;;4.00;99.90;;;;;;5040307;28;20108;-77
2023/12/09 11:05:51;;;;;;;11.70;5.97;;;4.10;99.90;;;;;;5073897;28;20048;-77
2023/12/09 11:08:18;;;;;;;11.57;5.15;;;4.10;99.90;;;;;;5056765;28;20036;-77
2023/12/09 11:10:45;;;;;;;9.90;5.35;;;4.10;99.90;;;;;;5055584;28;20136;-78
2023/12/09 11:13:12;;;;;;;9.00;4.55;;;4.00;99.90;;;;;;5071396;28;20024;-76
2023/12/09 11:15:38;;;;;;;7.90;4.47;;;4.00;99.90;;;;;;5071568;28;20024;-77
2023/12/09 11:18:09;;;;;;;46.97;5.40;;;3.90;99.90;;;;;;5057500;28;20386;-77
2023/12/09 11:20:40;;;;;;;164.90;16.15;;;3.80;99.90;;;;;;5056667;28;20052;-77
2023/12/09 11:23:10;;;;;;;99.97;11.15;;;3.70;99.90;;;;;;5056229;28;20028;-78
2023/12/09 11:25:41;;;;;;;122.07;11.98;;;3.60;99.90;;;;;;5056912;28;20037;-77
2023/12/09 11:28:11;;;;;;;44.03;7.93;;;3.50;99.90;;;;;;5072991;28;20466;-76
2023/12/09 11:30:44;;;;;;;23.52;5.43;;;3.50;99.90;;;;;;5072466;28;20045;-78
2023/12/09 11:33:10;;;;;;;33.30;5.03;;;3.60;99.90;;;;;;5077343;28;20025;-77
2023/12/09 11:35:37;;;;;;;9.65;4.38;;;3.60;99.90;;;;;;5076396;28;20020;-78
2023/12/09 11:38:08;;;;;;;8.05;3.97;;;3.70;99.90;;;;;;5075422;28;20022;-78
2023/12/09 11:40:34;;;;;;;30.27;4.70;;;3.70;99.90;;;;;;5054450;28;20023;-77
2023/12/09 11:43:03;;;;;;;7.60;4.38;;;3.90;99.90;;;;;;5057791;28;20493;-77
2023/12/09 11:45:29;;;;;;;10.85;4.93;;;3.90;99.90;;;;;;5073802;28;20025;-78
2023/12/09 11:47:55;;;;;;;79.20;8.70;;;3.90;99.90;;;;;;5055399;28;20056;-75
2023/12/09 11:50:21;;;;;;;45.92;7.60;;;3.90;99.90;;;;;;5056470;28;20050;-79
2023/12/09 11:52:48;;;;;;;87.72;9.73;;;3.90;99.90;;;;;;5055424;28;20024;-77
2023/12/09 11:55:17;;;;;;;24.33;6.97;;;3.80;99.90;;;;;;5055290;28;20021;-76
2023/12/09 11:57:43;;;;;;;105.88;12.63;;;3.80;99.90;;;;;;5071725;28;20032;-77
2023/12/09 12:00:13;;;;;;;100.57;13.00;;;3.70;99.90;;;;;;5069754;28;20370;-76
2023/12/09 12:02:45;;;;;;;115.30;15.60;;;3.60;99.90;;;;;;5070977;28;20032;-76
2023/12/09 12:05:11;;;;;;;155.55;16.67;;;3.60;99.90;;;;;;5072866;28;20029;-77
2023/12/09 12:07:38;;;;;;;247.20;25.10;;;3.60;99.90;;;;;;5072556;28;20028;-77
2023/12/09 12:10:14;;;;;;;206.57;25.00;;;3.60;99.90;;;;;;5068725;28;20031;-76
2023/12/09 12:12:46;;;;;;;287.50;35.08;;;3.60;99.90;;;;;;5052132;28;20028;-76
2023/12/09 12:15:12;;;;;;;215.95;29.55;;;3.70;99.90;;;;;;5069937;28;20539;-76
2023/12/09 12:17:39;;;;;;;145.02;19.55;;;3.60;99.90;;;;;;5071403;28;20021;-76
2023/12/09 12:20:12;;;;;;;212.68;31.15;;;3.60;99.90;;;;;;5074020;28;20021;-75
2023/12/09 12:22:44;;;;;;;221.52;34.17;;;3.60;99.90;;;;;;5055494;28;20051;-75
2023/12/09 12:25:17;;;;;;;139.93;17.33;;;3.60;99.90;;;;;;5055626;28;20729;-75
2023/12/09 12:27:47;;;;;;;167.95;22.60;;;3.50;99.90;;;;;;5026926;28;20140;-75
2023/12/09 12:30:14;;;;;;;158.38;19.42;;;3.60;99.90;;;;;;5013291;28;20038;-76
2023/12/09 12:32:40;;;;;;;75.40;15.65;;;3.50;99.90;;;;;;5016947;28;20042;-76
2023/12/09 12:35:07;;;;;;;236.50;39.80;;;3.50;99.90;;;;;;5033446;28;20389;-75
2023/12/09 12:37:32;;;;;;;113.45;17.90;;;3.50;99.90;;;;;;5031135;28;20126;-75
2023/12/09 12:39:58;;;;;;;160.15;22.35;;;3.50;99.90;;;;;;5016476;28;20137;-76
2023/12/09 12:42:24;;;;;;;193.05;24.88;;;3.40;99.90;;;;;;5031280;28;20033;-74
2023/12/09 12:44:50;;;;;;;95.78;15.60;;;3.40;99.90;;;;;;5015747;28;20577;-76
2023/12/09 12:47:16;;;;;;;118.15;22.73;;;3.40;99.90;;;;;;5025510;28;20133;-75